createdAt,value
2022-08-26T00:01:53.989Z,16.86
2022-08-26T00:04:23.536Z,16.86
2022-08-26T00:06:51.469Z,16.92
2022-08-26T00:09:19.282Z,16.89
2022-08-26T00:11:47.833Z,16.83
2022-08-26T00:14:17.081Z,16.79
2022-08-26T00:16:47.897Z,16.84
2022-08-26T00:19:17.884Z,16.87
2022-08-26T00:21:45.946Z,16.79
2022-08-26T00:24:14.228Z,16.76
2022-08-26T00:26:44.019Z,16.77
2022-08-26T00:29:12.734Z,16.73
2022-08-26T00:31:41.016Z,16.68
2022-08-26T00:34:11.341Z,16.64
2022-08-26T00:36:42.619Z,16.64
2022-08-26T00:39:11.249Z,16.59
2022-08-26T00:41:40.799Z,16.57
2022-08-26T00:44:10.315Z,16.52
2022-08-26T00:46:46.960Z,16.49
2022-08-26T00:49:20.861Z,16.45
2022-08-26T00:51:51.827Z,16.43
2022-08-26T00:54:23.906Z,16.38
2022-08-26T00:56:59.844Z,16.28
2022-08-26T00:59:29.194Z,16.24
2022-08-26T01:02:02.700Z,16.35
2022-08-26T01:04:34.628Z,16.40
2022-08-26T01:07:03.581Z,16.37
2022-08-26T01:09:32.561Z,16.36
2022-08-26T01:12:03.309Z,16.33
2022-08-26T01:14:34.393Z,16.32
2022-08-26T01:17:07.194Z,16.29
2022-08-26T01:19:43.431Z,16.24
2022-08-26T01:22:15.186Z,16.28
2022-08-26T01:24:44.878Z,16.25
2022-08-26T01:27:17.609Z,16.24
2022-08-26T01:29:47.434Z,16.21
2022-08-26T01:32:20.662Z,16.16
2022-08-26T01:34:49.402Z,16.14
2022-08-26T01:37:21.105Z,16.16
2022-08-26T01:39:52.791Z,16.12
2022-08-26T01:42:23.745Z,16.15
2022-08-26T01:44:54.978Z,16.10
2022-08-26T01:47:26.730Z,16.06
2022-08-26T01:50:00.805Z,16.03
2022-08-26T01:52:33.321Z,16.07
2022-08-26T01:55:02.991Z,16.09
2022-08-26T01:57:31.697Z,16.08
2022-08-26T02:00:02.439Z,15.99
2022-08-26T02:02:31.875Z,15.93
2022-08-26T02:05:02.684Z,15.91
2022-08-26T02:07:31.253Z,15.87
2022-08-26T02:10:02.572Z,15.84
2022-08-26T02:12:32.039Z,15.84
2022-08-26T02:15:05.687Z,15.95
2022-08-26T02:17:38.722Z,16.04
2022-08-26T02:20:13.106Z,16.00
2022-08-26T02:22:45.019Z,15.96
2022-08-26T02:25:19.582Z,15.97
2022-08-26T02:27:48.387Z,15.99
2022-08-26T02:30:18.814Z,15.95
2022-08-26T02:32:49.580Z,15.93
2022-08-26T02:35:20.195Z,15.98
2022-08-26T02:37:49.322Z,15.99
2022-08-26T02:40:21.842Z,16.01
2022-08-26T02:42:50.245Z,15.97
2022-08-26T02:45:23.292Z,15.94
2022-08-26T02:47:52.376Z,15.99
2022-08-26T02:50:20.913Z,16.02
2022-08-26T02:52:49.338Z,15.99
2022-08-26T02:55:19.511Z,15.90
2022-08-26T02:57:47.304Z,15.85
2022-08-26T03:00:15.873Z,15.84
2022-08-26T03:02:43.700Z,15.89
2022-08-26T03:05:12.191Z,15.90
2022-08-26T03:07:40.056Z,15.89
2022-08-26T03:10:09.066Z,15.81
2022-08-26T03:12:38.668Z,15.76
2022-08-26T03:15:16.430Z,15.76
2022-08-26T03:17:46.344Z,15.78
2022-08-26T03:20:15.472Z,15.81
2022-08-26T03:22:43.496Z,15.78
2022-08-26T03:25:13.861Z,15.72
2022-08-26T03:27:44.152Z,15.66
2022-08-26T03:30:31.027Z,15.60
2022-08-26T03:32:59.029Z,15.59
2022-08-26T03:35:27.031Z,15.53
2022-08-26T03:37:55.461Z,15.50
2022-08-26T03:40:23.531Z,15.52
2022-08-26T03:42:53.163Z,15.47
2022-08-26T03:45:21.786Z,15.39
2022-08-26T03:47:49.570Z,15.44
2022-08-26T03:50:22.723Z,15.41
2022-08-26T03:52:51.696Z,15.38
2022-08-26T03:55:20.897Z,15.37
2022-08-26T03:57:53.268Z,15.33
2022-08-26T04:00:21.637Z,15.31
2022-08-26T04:02:51.233Z,15.35
2022-08-26T04:05:23.126Z,15.33
2022-08-26T04:07:51.793Z,15.34
2022-08-26T04:10:28.977Z,15.28
2022-08-26T04:12:59.453Z,15.24
2022-08-26T04:15:28.101Z,15.19
2022-08-26T04:17:57.335Z,15.24
2022-08-26T04:20:25.940Z,15.22
2022-08-26T04:22:53.732Z,15.28
2022-08-26T04:25:22.460Z,15.28
2022-08-26T04:27:52.015Z,15.32
2022-08-26T04:30:21.822Z,15.24
2022-08-26T04:32:49.767Z,15.21
2022-08-26T04:35:17.726Z,15.21
2022-08-26T04:37:45.456Z,15.22
2022-08-26T04:40:13.640Z,15.29
2022-08-26T04:42:41.469Z,15.32
2022-08-26T04:45:10.518Z,15.31
2022-08-26T04:47:41.125Z,15.42
2022-08-26T04:50:10.947Z,15.47
2022-08-26T04:52:38.841Z,15.48
2022-08-26T04:55:08.564Z,15.51
2022-08-26T04:57:36.718Z,15.53
2022-08-26T05:00:06.098Z,15.51
2022-08-26T05:02:34.276Z,15.56
2022-08-26T05:05:04.339Z,15.62
2022-08-26T05:07:32.630Z,15.70
2022-08-26T05:10:00.470Z,15.87
2022-08-26T05:12:29.177Z,15.97
2022-08-26T05:14:57.282Z,16.13
2022-08-26T05:17:25.241Z,16.22
2022-08-26T05:19:52.951Z,16.32
2022-08-26T05:22:22.352Z,16.41
2022-08-26T05:24:50.610Z,16.48
2022-08-26T05:27:18.316Z,16.51
2022-08-26T05:29:46.038Z,16.54
2022-08-26T05:32:13.853Z,16.57
2022-08-26T05:34:43.001Z,16.62
2022-08-26T05:37:10.854Z,16.64
2022-08-26T05:39:43.471Z,16.67
2022-08-26T05:42:19.858Z,16.69
2022-08-26T05:44:53.876Z,16.74
2022-08-26T05:47:24.220Z,16.82
2022-08-26T05:49:52.202Z,16.89
2022-08-26T05:52:21.305Z,16.93
2022-08-26T05:54:53.864Z,17.00
2022-08-26T05:57:22.637Z,17.09
2022-08-26T05:59:51.563Z,17.17
2022-08-26T06:02:19.412Z,17.34
2022-08-26T06:04:47.415Z,17.47
2022-08-26T06:07:16.840Z,17.63
2022-08-26T06:09:46.148Z,17.84
2022-08-26T06:12:15.732Z,18.05
2022-08-26T06:14:46.250Z,18.23
2022-08-26T06:17:16.771Z,18.44
2022-08-26T06:19:45.538Z,18.67
2022-08-26T06:22:27.229Z,18.84
2022-08-26T06:25:12.472Z,19.10
2022-08-26T06:27:41.606Z,19.27
2022-08-26T06:30:10.475Z,19.44
2022-08-26T06:32:38.288Z,19.63
2022-08-26T06:35:07.260Z,19.78
2022-08-26T06:37:40.367Z,19.97
2022-08-26T06:40:09.934Z,20.28
2022-08-26T06:42:39.361Z,20.43
2022-08-26T06:45:09.524Z,20.63
2022-08-26T06:47:38.913Z,20.82
2022-08-26T06:50:08.263Z,21.00
2022-08-26T06:52:36.084Z,21.14
2022-08-26T06:55:04.008Z,21.31
2022-08-26T06:57:32.913Z,21.49
2022-08-26T07:00:03.415Z,21.71
2022-08-26T07:02:33.245Z,21.80
2022-08-26T07:05:02.964Z,21.88
2022-08-26T07:07:30.727Z,21.86
2022-08-26T07:09:58.473Z,21.85
2022-08-26T07:12:26.888Z,22.09
2022-08-26T07:14:55.206Z,22.36
2022-08-26T07:17:25.376Z,22.35
2022-08-26T07:19:54.665Z,22.45
2022-08-26T07:22:22.460Z,22.52
2022-08-26T07:24:54.025Z,22.32
2022-08-26T07:27:22.094Z,22.44
2022-08-26T07:29:49.856Z,22.70
2022-08-26T07:32:20.631Z,22.74
2022-08-26T07:34:51.098Z,22.81
2022-08-26T07:37:21.013Z,22.77
2022-08-26T07:39:48.858Z,22.79
2022-08-26T07:42:19.657Z,22.88
2022-08-26T07:44:47.675Z,22.90
2022-08-26T07:47:25.789Z,22.96
2022-08-26T07:49:55.150Z,22.86
2022-08-26T07:52:26.991Z,23.06
2022-08-26T07:54:55.323Z,23.23
2022-08-26T07:57:24.282Z,23.27
2022-08-26T07:59:54.039Z,23.24
2022-08-26T08:02:25.786Z,23.32
2022-08-26T08:04:54.569Z,23.20
2022-08-26T08:07:38.740Z,23.40
2022-08-26T08:10:13.473Z,23.55
2022-08-26T08:12:41.834Z,23.57
2022-08-26T08:15:11.557Z,23.57
2022-08-26T08:17:39.407Z,23.52
2022-08-26T08:20:09.219Z,23.52
2022-08-26T08:22:38.335Z,23.60
2022-08-26T08:25:08.137Z,23.48
2022-08-26T08:27:39.898Z,23.62
2022-08-26T08:30:13.815Z,23.60
2022-08-26T08:32:43.556Z,23.64
2022-08-26T08:35:13.414Z,23.67
2022-08-26T08:37:43.658Z,23.74
2022-08-26T08:40:18.205Z,23.77
2022-08-26T08:45:26.772Z,23.50
2022-08-26T08:47:58.069Z,23.37
2022-08-26T08:50:29.590Z,23.46
2022-08-26T08:53:09.119Z,23.58
2022-08-26T08:55:48.770Z,23.77
2022-08-26T08:58:20.622Z,24.00
2022-08-26T09:00:52.484Z,24.19
2022-08-26T09:03:33.535Z,23.98
2022-08-26T09:06:03.564Z,23.91
2022-08-26T09:08:36.940Z,23.92
2022-08-26T09:11:05.365Z,23.85
2022-08-26T09:13:35.152Z,23.94
2022-08-26T09:16:09.899Z,23.88
2022-08-26T09:18:54.124Z,23.68
2022-08-26T09:21:25.171Z,23.67
2022-08-26T09:23:57.203Z,23.49
2022-08-26T09:26:30.663Z,23.71
2022-08-26T09:29:01.757Z,23.56
2022-08-26T09:31:32.405Z,23.76
2022-08-26T09:34:17.528Z,23.66
2022-08-26T09:36:48.628Z,23.65
2022-08-26T09:39:37.815Z,23.86
2022-08-26T09:42:10.278Z,23.96
2022-08-26T09:44:54.655Z,24.25
2022-08-26T09:47:26.853Z,24.34
2022-08-26T09:50:04.104Z,24.44
2022-08-26T09:52:32.217Z,24.56
2022-08-26T09:55:07.513Z,24.78
2022-08-26T09:57:37.169Z,24.85
2022-08-26T10:00:25.608Z,24.79
2022-08-26T10:02:57.966Z,25.03
2022-08-26T10:05:33.386Z,25.20
2022-08-26T10:08:02.126Z,25.77
2022-08-26T10:10:40.733Z,26.22
2022-08-26T10:13:18.655Z,26.30
2022-08-26T10:16:00.622Z,26.34
2022-08-26T10:18:34.687Z,26.57
2022-08-26T10:21:07.874Z,26.76
2022-08-26T10:26:21.733Z,27.21
2022-08-26T10:28:54.303Z,27.50
2022-08-26T10:31:42.016Z,27.90
2022-08-26T10:34:14.144Z,28.16
2022-08-26T10:37:15.040Z,28.17
2022-08-26T10:39:51.906Z,28.19
2022-08-26T10:42:31.218Z,28.16
2022-08-26T10:45:04.501Z,27.70
2022-08-26T10:47:39.240Z,27.78
2022-08-26T10:50:07.660Z,27.69
2022-08-26T10:52:51.919Z,28.60
2022-08-26T10:55:26.289Z,28.97
2022-08-26T10:58:06.585Z,29.90
2022-08-26T11:01:13.718Z,30.14
2022-08-26T11:03:54.744Z,30.13
2022-08-26T11:06:27.947Z,30.28
2022-08-26T11:08:57.826Z,30.41
2022-08-26T11:11:48.724Z,30.72
2022-08-26T11:14:46.084Z,30.39
2022-08-26T11:18:00.061Z,30.57
2022-08-26T11:20:41.534Z,30.82
2022-08-26T11:23:38.735Z,29.96
2022-08-26T11:26:32.748Z,30.63
2022-08-26T11:29:03.422Z,30.21
2022-08-26T11:31:55.568Z,30.24
2022-08-26T11:34:54.026Z,30.56
2022-08-26T11:37:26.374Z,30.58
2022-08-26T11:39:57.162Z,30.72
2022-08-26T11:42:34.279Z,30.47
2022-08-26T11:45:05.446Z,30.39
2022-08-26T11:47:34.941Z,30.06
2022-08-26T11:50:14.377Z,29.92
2022-08-26T11:52:42.325Z,29.46
2022-08-26T11:55:14.733Z,29.70
2022-08-26T11:57:46.960Z,29.73
2022-08-26T12:00:22.397Z,29.82
2022-08-26T12:02:52.774Z,29.52
2022-08-26T12:05:27.210Z,29.15
2022-08-26T12:08:02.313Z,29.02
2022-08-26T12:10:32.749Z,28.89
2022-08-26T12:13:03.346Z,28.65
2022-08-26T12:15:32.769Z,28.68
2022-08-26T12:18:17.940Z,28.26
2022-08-26T12:20:53.911Z,28.44
2022-08-26T12:23:24.857Z,28.19
2022-08-26T12:25:55.402Z,28.16
2022-08-26T12:28:23.307Z,28.39
2022-08-26T12:31:02.162Z,28.87
2022-08-26T12:33:31.880Z,29.15
2022-08-26T12:36:01.978Z,29.25
2022-08-26T12:38:30.731Z,29.34
2022-08-26T12:40:58.771Z,28.72
2022-08-26T12:43:44.285Z,28.36
2022-08-26T12:46:15.319Z,28.55
2022-08-26T12:48:48.441Z,28.69
2022-08-26T12:51:28.407Z,28.85
2022-08-26T12:53:56.501Z,29.06
2022-08-26T12:56:36.715Z,29.01
2022-08-26T12:59:11.209Z,29.14
2022-08-26T13:01:44.146Z,29.06
2022-08-26T13:04:36.788Z,28.75
2022-08-26T13:07:24.783Z,28.94
2022-08-26T13:09:54.966Z,29.30
2022-08-26T13:12:31.821Z,29.49
2022-08-26T13:15:01.189Z,29.54
2022-08-26T13:17:30.854Z,29.28
2022-08-26T13:20:04.216Z,29.17
2022-08-26T13:22:32.751Z,29.17
2022-08-26T13:25:00.833Z,29.25
2022-08-26T13:27:29.078Z,29.04
2022-08-26T13:29:58.971Z,28.77
2022-08-26T13:32:27.571Z,28.58
2022-08-26T13:34:57.288Z,28.29
2022-08-26T13:37:34.971Z,28.47
2022-08-26T13:40:04.676Z,28.33
2022-08-26T13:42:32.512Z,28.44
2022-08-26T13:45:02.344Z,28.43
2022-08-26T13:47:30.664Z,28.40
2022-08-26T13:49:58.549Z,28.44
2022-08-26T13:52:30.965Z,28.71
2022-08-26T13:55:00.114Z,29.05
2022-08-26T13:57:28.509Z,29.30
2022-08-26T13:59:58.906Z,29.26
2022-08-26T14:02:27.547Z,29.38
2022-08-26T14:04:57.573Z,29.12
2022-08-26T14:07:25.369Z,29.09
2022-08-26T14:09:54.856Z,29.00
2022-08-26T14:12:22.783Z,29.01
2022-08-26T14:14:50.522Z,29.01
2022-08-26T14:17:20.695Z,29.01
2022-08-26T14:19:50.330Z,28.90
2022-08-26T14:22:21.159Z,29.04
2022-08-26T14:24:50.157Z,29.06
2022-08-26T14:27:19.360Z,28.97
2022-08-26T14:29:47.176Z,28.81
2022-08-26T14:32:22.906Z,28.70
2022-08-26T14:34:50.939Z,28.48
2022-08-26T14:37:19.011Z,28.34
2022-08-26T14:39:47.531Z,27.89
2022-08-26T14:42:17.408Z,27.75
2022-08-26T14:44:53.349Z,27.63
2022-08-26T14:47:21.147Z,27.58
2022-08-26T14:49:48.976Z,27.82
2022-08-26T14:52:16.761Z,27.90
2022-08-26T14:54:43.643Z,27.69
2022-08-26T14:57:14.147Z,27.72
2022-08-26T14:59:45.467Z,27.65
2022-08-26T15:02:32.394Z,27.57
2022-08-26T15:05:02.074Z,27.46
2022-08-26T15:07:30.018Z,27.43
2022-08-26T15:09:57.888Z,27.35
2022-08-26T15:12:25.713Z,27.41
2022-08-26T15:14:53.653Z,27.38
2022-08-26T15:17:22.808Z,27.40
2022-08-26T15:19:50.693Z,27.41
2022-08-26T15:22:18.571Z,27.54
2022-08-26T15:24:46.564Z,27.59
2022-08-26T15:27:14.554Z,27.69
2022-08-26T15:29:43.841Z,27.82
2022-08-26T15:32:11.745Z,27.98
2022-08-26T15:34:40.894Z,28.06
2022-08-26T15:37:08.698Z,28.26
2022-08-26T15:39:36.617Z,28.16
2022-08-26T15:42:07.766Z,28.26
2022-08-26T15:44:38.218Z,28.37
2022-08-26T15:47:06.265Z,28.43
2022-08-26T15:49:34.053Z,28.47
2022-08-26T15:52:05.497Z,28.45
2022-08-26T15:54:33.506Z,28.35
2022-08-26T15:57:03.631Z,28.36
2022-08-26T15:59:32.098Z,28.24
2022-08-26T16:02:00.086Z,28.05
2022-08-26T16:04:28.450Z,27.90
2022-08-26T16:06:56.321Z,27.86
2022-08-26T16:09:28.254Z,27.84
2022-08-26T16:11:56.925Z,27.74
2022-08-26T16:14:25.096Z,27.67
2022-08-26T16:16:53.399Z,27.56
2022-08-26T16:19:23.252Z,27.80
2022-08-26T16:21:51.806Z,27.92
2022-08-26T16:24:24.843Z,28.01
2022-08-26T16:26:56.469Z,28.99
2022-08-26T16:29:24.541Z,29.23
2022-08-26T16:31:53.295Z,28.63
2022-08-26T16:34:21.443Z,27.95
2022-08-26T16:36:49.323Z,27.46
2022-08-26T16:39:17.127Z,27.29
2022-08-26T16:41:45.253Z,26.96
2022-08-26T16:44:14.411Z,26.68
2022-08-26T16:46:42.312Z,26.44
2022-08-26T16:49:10.117Z,26.30
2022-08-26T16:51:38.522Z,26.25
2022-08-26T16:54:07.952Z,26.45
2022-08-26T16:56:36.597Z,26.90
2022-08-26T16:59:05.732Z,27.28
2022-08-26T17:01:35.214Z,27.72
2022-08-26T17:04:03.139Z,28.70
2022-08-26T17:06:34.046Z,29.34
2022-08-26T17:09:01.943Z,28.86
2022-08-26T17:11:29.786Z,27.83
2022-08-26T17:13:57.987Z,26.89
2022-08-26T17:16:27.050Z,26.31
2022-08-26T17:18:57.310Z,25.77
2022-08-26T17:21:26.274Z,25.40
2022-08-26T17:23:54.140Z,25.06
2022-08-26T17:26:22.050Z,24.80
2022-08-26T17:28:50.326Z,24.60
2022-08-26T17:31:18.822Z,24.39
2022-08-26T17:33:53.224Z,24.21
2022-08-26T17:36:28.178Z,24.06
2022-08-26T17:38:57.404Z,23.87
2022-08-26T17:41:25.916Z,23.70
2022-08-26T17:43:53.728Z,23.55
2022-08-26T17:46:21.538Z,23.39
2022-08-26T17:48:51.120Z,23.24
2022-08-26T17:51:20.228Z,23.11
2022-08-26T17:53:50.374Z,22.99
2022-08-26T17:56:21.065Z,22.86
2022-08-26T17:58:52.975Z,22.74
2022-08-26T18:01:21.746Z,22.61
2022-08-26T18:03:50.166Z,22.46
2022-08-26T18:06:20.027Z,22.35
2022-08-26T18:08:49.351Z,22.25
2022-08-26T18:11:19.238Z,22.16
2022-08-26T18:13:48.040Z,22.08
2022-08-26T18:16:17.678Z,21.94
2022-08-26T18:18:46.584Z,21.81
2022-08-26T18:21:15.737Z,21.76
2022-08-26T18:23:44.175Z,21.67
2022-08-26T18:26:19.221Z,21.57
2022-08-26T18:28:47.149Z,21.49
2022-08-26T18:31:15.221Z,21.37
2022-08-26T18:33:44.124Z,21.31
2022-08-26T18:36:17.013Z,21.21
2022-08-26T18:38:45.163Z,21.13
2022-08-26T18:41:14.312Z,21.07
2022-08-26T18:43:43.499Z,20.99
2022-08-26T18:46:11.703Z,20.95
2022-08-26T18:48:41.579Z,20.88
2022-08-26T18:51:12.589Z,20.80
2022-08-26T18:53:42.028Z,20.75
2022-08-26T18:56:09.846Z,20.64
2022-08-26T18:58:37.652Z,20.68
2022-08-26T19:01:07.226Z,21.01
2022-08-26T19:03:35.192Z,21.31
2022-08-26T19:06:03.153Z,21.52
2022-08-26T19:08:31.129Z,21.70
2022-08-26T19:11:00.950Z,21.84
2022-08-26T19:13:28.895Z,21.71
2022-08-26T19:15:57.032Z,21.57
2022-08-26T19:18:26.428Z,21.36
2022-08-26T19:20:54.553Z,20.85
2022-08-26T19:23:31.358Z,19.90
2022-08-26T19:26:04.105Z,18.61
2022-08-26T19:28:32.540Z,17.71
2022-08-26T19:31:01.023Z,17.30
2022-08-26T19:33:30.759Z,16.91
2022-08-26T19:35:58.752Z,16.64
2022-08-26T19:38:27.801Z,16.31
2022-08-26T19:40:56.045Z,16.03
2022-08-26T19:43:23.892Z,15.82
2022-08-26T19:45:51.758Z,15.60
2022-08-26T19:48:19.544Z,15.56
2022-08-26T19:50:48.788Z,15.53
2022-08-26T19:53:16.920Z,15.49
2022-08-26T19:55:45.028Z,15.45
2022-08-26T19:58:13.049Z,15.41
2022-08-26T20:00:42.446Z,15.30
2022-08-26T20:03:13.061Z,15.30
2022-08-26T20:05:43.872Z,15.33
2022-08-26T20:08:21.791Z,15.43
2022-08-26T20:10:51.125Z,15.64
2022-08-26T20:13:19.335Z,15.64
2022-08-26T20:15:47.173Z,15.62
2022-08-26T20:18:28.937Z,15.63
2022-08-26T20:21:13.931Z,15.62
2022-08-26T20:23:43.813Z,15.64
2022-08-26T20:26:11.903Z,15.57
2022-08-26T20:28:39.697Z,15.64
2022-08-26T20:31:07.752Z,15.66
2022-08-26T20:33:46.011Z,15.73
2022-08-26T20:36:16.038Z,15.73
2022-08-26T20:38:45.988Z,15.74
2022-08-26T20:41:13.905Z,15.69
2022-08-26T20:43:42.693Z,15.69
2022-08-26T20:46:18.810Z,15.55
2022-08-26T20:48:47.724Z,15.54
2022-08-26T20:51:17.747Z,15.64
2022-08-26T20:53:49.520Z,15.57
2022-08-26T20:56:21.755Z,15.54
2022-08-26T20:58:49.614Z,15.53
2022-08-26T21:01:21.505Z,15.50
2022-08-26T21:03:51.751Z,15.48
2022-08-26T21:06:19.886Z,15.59
2022-08-26T21:08:49.497Z,15.58
2022-08-26T21:11:18.304Z,15.58
2022-08-26T21:14:04.475Z,15.58
2022-08-26T21:16:36.606Z,15.55
2022-08-26T21:19:05.764Z,15.51
2022-08-26T21:21:33.741Z,15.50
2022-08-26T21:24:03.152Z,15.52
2022-08-26T21:26:34.221Z,15.56
2022-08-26T21:29:02.575Z,15.70
2022-08-26T21:31:31.940Z,15.73
2022-08-26T21:34:00.322Z,15.73
2022-08-26T21:36:28.342Z,15.75
2022-08-26T21:38:56.693Z,15.77
2022-08-26T21:41:26.964Z,15.80
2022-08-26T21:43:59.091Z,15.84
2022-08-26T21:46:29.023Z,15.84
2022-08-26T21:48:58.713Z,15.88
2022-08-26T21:51:28.731Z,15.88
2022-08-26T21:54:00.443Z,15.94
2022-08-26T21:56:32.484Z,15.94
2022-08-26T21:59:02.026Z,15.97
2022-08-26T22:01:34.670Z,16.00
2022-08-26T22:04:04.903Z,16.00
2022-08-26T22:06:35.144Z,16.07
2022-08-26T22:09:03.159Z,16.14
2022-08-26T22:11:32.965Z,16.16
2022-08-26T22:14:00.743Z,16.22
2022-08-26T22:16:28.687Z,16.27
2022-08-26T22:18:56.659Z,16.26
2022-08-26T22:21:27.024Z,16.25
2022-08-26T22:23:57.898Z,16.26
2022-08-26T22:26:28.730Z,16.24
2022-08-26T22:28:59.538Z,16.23
2022-08-26T22:31:38.082Z,16.23
2022-08-26T22:34:08.592Z,16.22
2022-08-26T22:36:42.662Z,16.20
2022-08-26T22:39:12.704Z,16.15
2022-08-26T22:41:40.522Z,16.15
2022-08-26T22:44:10.311Z,16.09
2022-08-26T22:46:38.652Z,16.02
2022-08-26T22:49:06.526Z,16.01
2022-08-26T22:51:34.629Z,15.98
2022-08-26T22:54:02.473Z,15.93
2022-08-26T22:56:30.265Z,15.93
2022-08-26T22:58:58.054Z,15.89
2022-08-26T23:06:43.027Z,15.81
2022-08-26T23:09:11.782Z,15.82
2022-08-26T23:11:42.576Z,15.86
2022-08-26T23:14:11.102Z,15.93
2022-08-26T23:16:41.537Z,15.96
2022-08-26T23:19:10.735Z,15.96
2022-08-26T23:21:39.002Z,16.01
2022-08-26T23:24:09.348Z,16.01
2022-08-26T23:26:38.180Z,15.95
2022-08-26T23:29:07.392Z,15.97
2022-08-26T23:31:35.345Z,15.97
2022-08-26T23:34:20.640Z,15.87
2022-08-26T23:36:48.413Z,15.82
2022-08-26T23:39:17.803Z,15.78
2022-08-26T23:41:45.643Z,15.68
2022-08-26T23:44:13.435Z,15.61
2022-08-26T23:46:41.323Z,15.60
2022-08-26T23:49:09.333Z,15.55
2022-08-26T23:51:56.022Z,15.53
2022-08-26T23:54:25.181Z,15.43
2022-08-26T23:56:52.958Z,15.42
2022-08-26T23:59:21.111Z,15.31
